JAL2410 RJFK-RJOO
Flight info
| Callsign | JAL2410 |
|---|---|
| Flight time | 0h 53m |
| Altitude | 35000 |
| Route | MIDAI M750 MADOG Y753 IZUMI |
| Aircraft | E170/M-SDFLOVE2GIRW/SB1 |
Departure
| Time | 2026-04-27 12:20 |
|---|---|
| Airport | Kagoshima Airport (RJFK) |
Arrival
| Time | 2026-04-27 13:13 |
|---|---|
| Airport | Osaka Itami International Airport (RJOO) |
| Time | Latitude | Longitude | Altitude | Speed | Heading |
|---|---|---|---|---|---|
| 2026-04-27 11:33 | 31.80168 | 130.71660 | 885 ft | 0 kts | 240° |
| 2026-04-27 12:11 | 31.80177 | 130.71679 | 881 ft | 4 kts | 240° |
| 2026-04-27 12:11 | 31.80189 | 130.71702 | 882 ft | 4 kts | 234° |
| 2026-04-27 12:11 | 31.80210 | 130.71717 | 906 ft | 4 kts | 181° |
| 2026-04-27 12:12 | 31.80232 | 130.71709 | 906 ft | 1 kts | 149° |
| 2026-04-27 12:15 | 31.80227 | 130.71712 | 906 ft | 3 kts | 148° |
| 2026-04-27 12:15 | 31.80216 | 130.71747 | 907 ft | 7 kts | 73° |
| 2026-04-27 12:15 | 31.80193 | 130.71812 | 902 ft | 11 kts | 144° |
| 2026-04-27 12:15 | 31.80127 | 130.71858 | 902 ft | 12 kts | 150° |
| 2026-04-27 12:16 | 31.80047 | 130.71913 | 902 ft | 15 kts | 150° |
| 2026-04-27 12:16 | 31.79947 | 130.71980 | 900 ft | 17 kts | 150° |
| 2026-04-27 12:16 | 31.79838 | 130.72054 | 898 ft | 18 kts | 149° |
| 2026-04-27 12:16 | 31.79742 | 130.72118 | 895 ft | 16 kts | 150° |
| 2026-04-27 12:17 | 31.79649 | 130.72182 | 895 ft | 16 kts | 150° |
| 2026-04-27 12:17 | 31.79546 | 130.72251 | 894 ft | 18 kts | 150° |
| 2026-04-27 12:17 | 31.79433 | 130.72327 | 894 ft | 16 kts | 150° |
| 2026-04-27 12:17 | 31.79335 | 130.72393 | 893 ft | 15 kts | 149° |
| 2026-04-27 12:18 | 31.79243 | 130.72456 | 893 ft | 14 kts | 150° |
| 2026-04-27 12:18 | 31.79164 | 130.72510 | 893 ft | 14 kts | 150° |
| 2026-04-27 12:18 | 31.79115 | 130.72550 | 891 ft | 4 kts | 107° |
| 2026-04-27 12:18 | 31.79122 | 130.72603 | 890 ft | 9 kts | 66° |
| 2026-04-27 12:19 | 31.79158 | 130.72676 | 887 ft | 11 kts | 59° |
| 2026-04-27 12:19 | 31.79204 | 130.72709 | 889 ft | 6 kts | 338° |
| 2026-04-27 12:19 | 31.79221 | 130.72697 | 889 ft | 0 kts | 329° |
| 2026-04-27 12:19 | 31.79295 | 130.72647 | 892 ft | 39 kts | 331° |
| 2026-04-27 12:20 | 31.79754 | 130.72336 | 897 ft | 112 kts | 330° |
| 2026-04-27 12:20 | 31.80590 | 130.71775 | 1037 ft | 158 kts | 328° |
| 2026-04-27 12:20 | 31.81558 | 130.71101 | 1800 ft | 163 kts | 328° |
| 2026-04-27 12:20 | 31.82588 | 130.70418 | 2480 ft | 175 kts | 335° |
| 2026-04-27 12:21 | 31.83819 | 130.70091 | 3047 ft | 191 kts | 0° |
| 2026-04-27 12:21 | 31.85144 | 130.70556 | 3558 ft | 211 kts | 31° |
| 2026-04-27 12:21 | 31.86299 | 130.71739 | 4156 ft | 232 kts | 48° |
| 2026-04-27 12:21 | 31.87161 | 130.73408 | 4728 ft | 256 kts | 73° |
| 2026-04-27 12:22 | 31.87207 | 130.75571 | 5281 ft | 276 kts | 105° |
| 2026-04-27 12:22 | 31.86366 | 130.77611 | 6180 ft | 279 kts | 125° |
| 2026-04-27 12:22 | 31.85289 | 130.79461 | 7419 ft | 267 kts | 124° |
| 2026-04-27 12:22 | 31.84309 | 130.81394 | 8057 ft | 286 kts | 121° |
| 2026-04-27 12:23 | 31.83331 | 130.83512 | 8656 ft | 299 kts | 117° |
| 2026-04-27 12:23 | 31.82391 | 130.85720 | 9455 ft | 304 kts | 117° |
| 2026-04-27 12:23 | 31.81428 | 130.87968 | 10181 ft | 311 kts | 118° |
| 2026-04-27 12:23 | 31.80430 | 130.90307 | 10487 ft | 330 kts | 118° |
| 2026-04-27 12:24 | 31.79381 | 130.92766 | 11004 ft | 339 kts | 118° |
| 2026-04-27 12:24 | 31.78314 | 130.95261 | 11675 ft | 344 kts | 118° |
| 2026-04-27 12:24 | 31.77228 | 130.97787 | 12387 ft | 349 kts | 118° |
| 2026-04-27 12:24 | 31.76135 | 131.00326 | 13111 ft | 354 kts | 118° |
| 2026-04-27 12:25 | 31.75015 | 131.02926 | 13848 ft | 360 kts | 119° |
| 2026-04-27 12:25 | 31.73875 | 131.05573 | 14530 ft | 365 kts | 119° |
| 2026-04-27 12:25 | 31.72719 | 131.08254 | 15210 ft | 371 kts | 119° |
| 2026-04-27 12:25 | 31.71537 | 131.10990 | 15889 ft | 377 kts | 120° |
| 2026-04-27 12:26 | 31.70338 | 131.13764 | 16543 ft | 383 kts | 120° |
| 2026-04-27 12:26 | 31.69117 | 131.16577 | 17175 ft | 390 kts | 120° |
| 2026-04-27 12:26 | 31.67881 | 131.19435 | 17802 ft | 395 kts | 120° |
| 2026-04-27 12:26 | 31.66643 | 131.22294 | 18388 ft | 402 kts | 120° |
| 2026-04-27 12:27 | 31.65370 | 131.25233 | 18978 ft | 405 kts | 120° |
| 2026-04-27 12:27 | 31.64091 | 131.28178 | 19595 ft | 406 kts | 121° |
| 2026-04-27 12:27 | 31.62791 | 131.31151 | 20139 ft | 411 kts | 121° |
| 2026-04-27 12:27 | 31.61487 | 131.34161 | 20652 ft | 417 kts | 118° |
| 2026-04-27 12:28 | 31.60681 | 131.37460 | 21163 ft | 427 kts | 96° |
| 2026-04-27 12:28 | 31.60993 | 131.40921 | 21854 ft | 427 kts | 70° |
| 2026-04-27 12:28 | 31.62270 | 131.44032 | 22510 ft | 423 kts | 53° |
| 2026-04-27 12:28 | 31.63930 | 131.46889 | 23080 ft | 426 kts | 50° |
| 2026-04-27 12:29 | 31.65623 | 131.49787 | 23571 ft | 433 kts | 52° |
| 2026-04-27 12:29 | 31.67276 | 131.52781 | 23989 ft | 439 kts | 53° |
| 2026-04-27 12:29 | 31.68870 | 131.55822 | 24393 ft | 445 kts | 54° |
| 2026-04-27 12:29 | 31.70501 | 131.59001 | 24779 ft | 451 kts | 54° |
| 2026-04-27 12:30 | 31.72109 | 131.62139 | 25227 ft | 455 kts | 54° |
| 2026-04-27 12:30 | 31.73741 | 131.65331 | 25731 ft | 457 kts | 54° |
| 2026-04-27 12:30 | 31.75383 | 131.68538 | 26207 ft | 459 kts | 54° |
| 2026-04-27 12:30 | 31.77044 | 131.71767 | 26655 ft | 462 kts | 54° |
| 2026-04-27 12:31 | 31.78719 | 131.75004 | 27084 ft | 465 kts | 53° |
| 2026-04-27 12:31 | 31.80407 | 131.78259 | 27515 ft | 468 kts | 53° |
| 2026-04-27 12:31 | 31.82106 | 131.81531 | 27957 ft | 470 kts | 53° |
| 2026-04-27 12:31 | 31.83820 | 131.84827 | 28397 ft | 473 kts | 53° |
| 2026-04-27 12:32 | 31.85547 | 131.88144 | 28783 ft | 476 kts | 53° |
| 2026-04-27 12:32 | 31.87261 | 131.91426 | 29169 ft | 478 kts | 53° |
| 2026-04-27 12:32 | 31.89007 | 131.94770 | 29545 ft | 481 kts | 53° |
| 2026-04-27 12:32 | 31.90779 | 131.98155 | 29901 ft | 484 kts | 52° |
| 2026-04-27 12:33 | 31.92551 | 132.01540 | 30241 ft | 486 kts | 52° |
| 2026-04-27 12:33 | 31.94328 | 132.04932 | 30542 ft | 488 kts | 52° |
| 2026-04-27 12:33 | 31.96117 | 132.08341 | 30817 ft | 491 kts | 52° |
| 2026-04-27 12:33 | 31.97919 | 132.11770 | 31098 ft | 493 kts | 52° |
| 2026-04-27 12:34 | 31.99710 | 132.15176 | 31379 ft | 496 kts | 52° |
| 2026-04-27 12:34 | 32.01533 | 132.18644 | 31666 ft | 498 kts | 52° |
| 2026-04-27 12:34 | 32.03358 | 132.22114 | 31981 ft | 498 kts | 52° |
| 2026-04-27 12:34 | 32.05187 | 132.25592 | 32268 ft | 500 kts | 52° |
| 2026-04-27 12:35 | 32.07029 | 132.29091 | 32621 ft | 501 kts | 52° |
| 2026-04-27 12:35 | 32.08869 | 132.32581 | 32932 ft | 501 kts | 52° |
| 2026-04-27 12:35 | 32.10708 | 132.36069 | 33298 ft | 500 kts | 52° |
| 2026-04-27 12:35 | 32.12543 | 132.39547 | 33673 ft | 499 kts | 52° |
| 2026-04-27 12:36 | 32.14354 | 132.42980 | 34064 ft | 497 kts | 52° |
| 2026-04-27 12:36 | 32.16182 | 132.46449 | 34354 ft | 497 kts | 52° |
| 2026-04-27 12:36 | 32.18008 | 132.49911 | 34651 ft | 497 kts | 52° |
| 2026-04-27 12:36 | 32.19836 | 132.53381 | 34881 ft | 498 kts | 52° |
| 2026-04-27 12:37 | 32.21650 | 132.56833 | 35096 ft | 497 kts | 52° |
| 2026-04-27 12:37 | 32.25357 | 132.63879 | 35061 ft | 512 kts | 53° |
| 2026-04-27 12:38 | 32.29141 | 132.71101 | 35006 ft | 519 kts | 53° |
| 2026-04-27 12:38 | 32.32934 | 132.78360 | 34984 ft | 521 kts | 53° |
| 2026-04-27 12:39 | 32.36748 | 132.85667 | 34981 ft | 521 kts | 53° |
| 2026-04-27 12:39 | 32.40552 | 132.92967 | 35020 ft | 521 kts | 52° |
| 2026-04-27 12:40 | 32.44376 | 133.00319 | 34986 ft | 524 kts | 52° |
| 2026-04-27 12:40 | 32.48185 | 133.07660 | 34989 ft | 522 kts | 53° |
| 2026-04-27 12:41 | 32.51986 | 133.14997 | 34981 ft | 522 kts | 53° |
| 2026-04-27 12:41 | 32.55761 | 133.22299 | 34978 ft | 522 kts | 53° |
| 2026-04-27 12:42 | 32.59560 | 133.29663 | 34977 ft | 522 kts | 53° |
| 2026-04-27 12:42 | 32.63347 | 133.37015 | 34964 ft | 524 kts | 53° |
| 2026-04-27 12:43 | 32.67432 | 133.44084 | 34976 ft | 516 kts | 44° |
| 2026-04-27 12:43 | 32.71934 | 133.50652 | 34972 ft | 515 kts | 44° |
| 2026-04-27 12:44 | 32.76542 | 133.57196 | 34962 ft | 516 kts | 43° |
| 2026-04-27 12:44 | 32.81131 | 133.63766 | 34962 ft | 516 kts | 44° |
| 2026-04-27 12:45 | 32.85709 | 133.70351 | 35004 ft | 516 kts | 43° |
| 2026-04-27 12:45 | 32.90300 | 133.76964 | 34973 ft | 519 kts | 44° |
| 2026-04-27 12:46 | 32.94900 | 133.83602 | 34958 ft | 519 kts | 44° |
| 2026-04-27 12:46 | 32.99455 | 133.90188 | 34957 ft | 521 kts | 43° |
| 2026-04-27 12:47 | 33.04056 | 133.96853 | 34871 ft | 516 kts | 43° |
| 2026-04-27 12:47 | 33.06298 | 134.00119 | 34473 ft | 504 kts | 43° |
| 2026-04-27 12:47 | 33.08503 | 134.03328 | 33963 ft | 495 kts | 43° |
| 2026-04-27 12:47 | 33.10682 | 134.06490 | 33404 ft | 495 kts | 43° |
| 2026-04-27 12:48 | 33.12883 | 134.09673 | 32836 ft | 500 kts | 43° |
| 2026-04-27 12:48 | 33.15080 | 134.12858 | 32239 ft | 505 kts | 43° |
| 2026-04-27 12:48 | 33.17314 | 134.16112 | 31654 ft | 506 kts | 43° |
| 2026-04-27 12:48 | 33.19545 | 134.19370 | 31047 ft | 506 kts | 43° |
| 2026-04-27 12:49 | 33.21775 | 134.22630 | 30512 ft | 507 kts | 43° |
| 2026-04-27 12:49 | 33.24023 | 134.25915 | 29920 ft | 509 kts | 43° |
| 2026-04-27 12:49 | 33.26268 | 134.29196 | 29264 ft | 510 kts | 43° |
| 2026-04-27 12:49 | 33.28511 | 134.32479 | 28623 ft | 510 kts | 43° |
| 2026-04-27 12:50 | 33.30746 | 134.35758 | 28012 ft | 506 kts | 44° |
| 2026-04-27 12:50 | 33.32926 | 134.38960 | 27391 ft | 500 kts | 43° |
| 2026-04-27 12:50 | 33.35110 | 134.42171 | 26759 ft | 495 kts | 44° |
| 2026-04-27 12:50 | 33.37282 | 134.45362 | 26137 ft | 492 kts | 44° |
| 2026-04-27 12:51 | 33.39434 | 134.48524 | 25555 ft | 488 kts | 44° |
| 2026-04-27 12:51 | 33.41571 | 134.51669 | 24951 ft | 484 kts | 44° |
| 2026-04-27 12:51 | 33.43683 | 134.54781 | 24379 ft | 479 kts | 44° |
| 2026-04-27 12:51 | 33.45775 | 134.57865 | 23844 ft | 474 kts | 44° |
| 2026-04-27 12:52 | 33.47844 | 134.60920 | 23220 ft | 470 kts | 44° |
| 2026-04-27 12:52 | 33.49204 | 134.62927 | 22761 ft | 466 kts | 44° |
| 2026-04-27 12:52 | 33.51229 | 134.65921 | 22122 ft | 460 kts | 45° |
| 2026-04-27 12:52 | 33.53234 | 134.68889 | 21474 ft | 454 kts | 45° |
| 2026-04-27 12:53 | 33.57730 | 134.75555 | 20086 ft | 431 kts | 45° |
| 2026-04-27 12:53 | 33.59048 | 134.77353 | 19662 ft | 420 kts | 37° |
| 2026-04-27 12:53 | 33.62066 | 134.79998 | 19199 ft | 388 kts | 24° |
| 2026-04-27 12:54 | 33.63593 | 134.81097 | 19568 ft | 373 kts | 22° |
| 2026-04-27 12:54 | 33.65864 | 134.82700 | 19587 ft | 388 kts | 22° |
| 2026-04-27 12:54 | 33.68219 | 134.84376 | 19382 ft | 397 kts | 23° |
| 2026-04-27 12:54 | 33.70563 | 134.86095 | 19199 ft | 400 kts | 24° |
| 2026-04-27 12:55 | 33.72928 | 134.87856 | 19002 ft | 400 kts | 24° |
| 2026-04-27 12:55 | 33.75271 | 134.89609 | 19351 ft | 389 kts | 24° |
| 2026-04-27 12:55 | 33.77555 | 134.91326 | 19694 ft | 394 kts | 24° |
| 2026-04-27 12:55 | 33.79913 | 134.93068 | 19350 ft | 398 kts | 24° |
| 2026-04-27 12:56 | 33.82263 | 134.94788 | 19550 ft | 394 kts | 23° |
| 2026-04-27 12:56 | 33.84646 | 134.96524 | 19405 ft | 400 kts | 24° |
| 2026-04-27 12:56 | 33.87038 | 134.98277 | 18873 ft | 406 kts | 24° |
| 2026-04-27 12:56 | 33.89432 | 135.00050 | 18298 ft | 400 kts | 25° |
| 2026-04-27 12:57 | 33.91748 | 135.01778 | 17810 ft | 389 kts | 25° |
| 2026-04-27 12:57 | 33.94032 | 135.03484 | 17253 ft | 385 kts | 25° |
| 2026-04-27 12:57 | 33.96302 | 135.05170 | 16714 ft | 382 kts | 25° |
| 2026-04-27 12:57 | 33.98566 | 135.06851 | 16171 ft | 380 kts | 26° |
| 2026-04-27 12:58 | 34.00806 | 135.08518 | 15681 ft | 377 kts | 26° |
| 2026-04-27 12:58 | 34.03033 | 135.10177 | 15181 ft | 374 kts | 26° |
| 2026-04-27 12:58 | 34.05247 | 135.11825 | 14664 ft | 372 kts | 26° |
| 2026-04-27 12:58 | 34.07436 | 135.13458 | 14204 ft | 368 kts | 27° |
| 2026-04-27 12:59 | 34.09607 | 135.15088 | 13667 ft | 367 kts | 27° |
| 2026-04-27 12:59 | 34.11755 | 135.16700 | 13223 ft | 359 kts | 27° |
| 2026-04-27 12:59 | 34.13835 | 135.18256 | 12752 ft | 351 kts | 27° |
| 2026-04-27 12:59 | 34.15891 | 135.19790 | 12288 ft | 343 kts | 27° |
| 2026-04-27 13:00 | 34.17904 | 135.21286 | 11841 ft | 335 kts | 27° |
| 2026-04-27 13:00 | 34.19868 | 135.22754 | 11405 ft | 329 kts | 28° |
| 2026-04-27 13:00 | 34.21786 | 135.24192 | 11142 ft | 318 kts | 28° |
| 2026-04-27 13:00 | 34.23620 | 135.25616 | 10930 ft | 310 kts | 30° |
| 2026-04-27 13:01 | 34.25394 | 135.27087 | 10952 ft | 312 kts | 31° |
| 2026-04-27 13:01 | 34.27204 | 135.28590 | 10718 ft | 317 kts | 31° |
| 2026-04-27 13:01 | 34.29019 | 135.30091 | 10455 ft | 313 kts | 31° |
| 2026-04-27 13:01 | 34.30806 | 135.31554 | 10062 ft | 306 kts | 31° |
| 2026-04-27 13:02 | 34.32558 | 135.32976 | 9679 ft | 301 kts | 31° |
| 2026-04-27 13:02 | 34.34275 | 135.34394 | 9252 ft | 297 kts | 31° |
| 2026-04-27 13:02 | 34.35965 | 135.35788 | 8833 ft | 292 kts | 31° |
| 2026-04-27 13:02 | 34.37637 | 135.37169 | 8445 ft | 288 kts | 31° |
| 2026-04-27 13:03 | 34.39262 | 135.38505 | 8028 ft | 286 kts | 31° |
| 2026-04-27 13:03 | 34.40897 | 135.39847 | 7612 ft | 282 kts | 31° |
| 2026-04-27 13:03 | 34.42518 | 135.41178 | 7201 ft | 280 kts | 31° |
| 2026-04-27 13:03 | 34.43913 | 135.42823 | 6767 ft | 284 kts | 55° |
| 2026-04-27 13:04 | 34.44647 | 135.45043 | 6352 ft | 285 kts | 71° |
| 2026-04-27 13:04 | 34.45173 | 135.47364 | 5898 ft | 285 kts | 72° |
| 2026-04-27 13:04 | 34.45708 | 135.49669 | 5420 ft | 284 kts | 72° |
| 2026-04-27 13:04 | 34.46245 | 135.51966 | 5053 ft | 281 kts | 71° |
| 2026-04-27 13:05 | 34.46766 | 135.54169 | 4941 ft | 271 kts | 71° |
| 2026-04-27 13:05 | 34.47302 | 135.56381 | 4456 ft | 274 kts | 70° |
| 2026-04-27 13:05 | 34.47862 | 135.58548 | 4273 ft | 265 kts | 71° |
| 2026-04-27 13:05 | 34.48363 | 135.60665 | 3961 ft | 263 kts | 71° |
| 2026-04-27 13:06 | 34.49211 | 135.62529 | 4019 ft | 253 kts | 44° |
| 2026-04-27 13:06 | 34.50637 | 135.63806 | 3854 ft | 256 kts | 30° |
| 2026-04-27 13:06 | 34.52148 | 135.64955 | 3635 ft | 254 kts | 30° |
| 2026-04-27 13:06 | 34.53693 | 135.65897 | 3443 ft | 244 kts | 12° |
| 2026-04-27 13:07 | 34.55306 | 135.66055 | 3601 ft | 224 kts | 357° |
| 2026-04-27 13:07 | 34.56873 | 135.65900 | 3588 ft | 230 kts | 351° |
| 2026-04-27 13:07 | 34.58470 | 135.65565 | 3526 ft | 234 kts | 344° |
| 2026-04-27 13:07 | 34.59984 | 135.64974 | 3446 ft | 227 kts | 340° |
| 2026-04-27 13:08 | 34.61461 | 135.64338 | 3435 ft | 225 kts | 327° |
| 2026-04-27 13:08 | 34.62591 | 135.63038 | 3518 ft | 224 kts | 308° |
| 2026-04-27 13:08 | 34.63618 | 135.61597 | 3470 ft | 225 kts | 314° |
| 2026-04-27 13:08 | 34.64742 | 135.60344 | 3448 ft | 213 kts | 316° |
| 2026-04-27 13:09 | 34.65814 | 135.59066 | 3171 ft | 218 kts | 313° |
| 2026-04-27 13:09 | 34.66869 | 135.57739 | 2876 ft | 218 kts | 314° |
| 2026-04-27 13:09 | 34.67936 | 135.56466 | 2609 ft | 208 kts | 315° |
| 2026-04-27 13:09 | 34.68893 | 135.55315 | 2337 ft | 182 kts | 314° |
| 2026-04-27 13:10 | 34.69732 | 135.54289 | 2099 ft | 166 kts | 314° |
| 2026-04-27 13:10 | 34.70535 | 135.53313 | 1885 ft | 161 kts | 315° |
| 2026-04-27 13:10 | 34.71313 | 135.52358 | 1653 ft | 155 kts | 314° |
| 2026-04-27 13:10 | 34.72074 | 135.51558 | 1514 ft | 137 kts | 325° |
| 2026-04-27 13:11 | 34.72850 | 135.50870 | 1410 ft | 140 kts | 322° |
| 2026-04-27 13:11 | 34.73560 | 135.50077 | 1238 ft | 137 kts | 316° |
| 2026-04-27 13:11 | 34.74225 | 135.49245 | 1072 ft | 137 kts | 315° |
| 2026-04-27 13:11 | 34.74900 | 135.48424 | 918 ft | 138 kts | 317° |
| 2026-04-27 13:12 | 34.75590 | 135.47614 | 752 ft | 137 kts | 316° |
| 2026-04-27 13:12 | 34.76266 | 135.46805 | 591 ft | 134 kts | 316° |
| 2026-04-27 13:12 | 34.76920 | 135.46017 | 432 ft | 136 kts | 316° |
| 2026-04-27 13:12 | 34.77601 | 135.45200 | 254 ft | 138 kts | 316° |
| 2026-04-27 13:13 | 34.78277 | 135.44382 | 97 ft | 135 kts | 316° |
| 2026-04-27 13:13 | 34.78883 | 135.43650 | 49 ft | 101 kts | 315° |
| 2026-04-27 13:13 | 34.79235 | 135.43222 | 47 ft | 33 kts | 315° |
| 2026-04-27 13:13 | 34.79326 | 135.43123 | 47 ft | 8 kts | 343° |
| 2026-04-27 13:14 | 34.79378 | 135.43150 | 46 ft | 7 kts | 55° |
| 2026-04-27 13:14 | 34.79380 | 135.43217 | 48 ft | 9 kts | 117° |
| 2026-04-27 13:14 | 34.79335 | 135.43281 | 48 ft | 11 kts | 135° |
| 2026-04-27 13:14 | 34.79275 | 135.43353 | 48 ft | 14 kts | 135° |
| 2026-04-27 13:15 | 34.79227 | 135.43433 | 48 ft | 10 kts | 87° |
| 2026-04-27 13:15 | 34.79264 | 135.43500 | 48 ft | 11 kts | 51° |
| 2026-04-27 13:15 | 34.79285 | 135.43552 | 47 ft | 5 kts | 76° |
| 2026-04-27 13:15 | 34.79291 | 135.43591 | 48 ft | 6 kts | 81° |
| 2026-04-27 13:16 | 34.79306 | 135.43635 | 48 ft | 7 kts | 60° |
| 2026-04-27 13:16 | 34.79336 | 135.43690 | 48 ft | 8 kts | 53° |
| 2026-04-27 13:16 | 34.79356 | 135.43743 | 47 ft | 6 kts | 103° |
| 2026-04-27 13:16 | 34.79335 | 135.43758 | 47 ft | 4 kts | 161° |
| 2026-04-27 13:17 | 34.79309 | 135.43767 | 48 ft | 3 kts | 164° |
| 2026-04-27 13:17 | 34.79294 | 135.43772 | 46 ft | 1 kts | 164° |
| 2026-04-27 13:17 | 34.79292 | 135.43773 | 47 ft | 0 kts | 164° |